createdAt,value
2022-10-13T00:00:17.294Z,9.57
2022-10-13T00:02:47.556Z,9.53
2022-10-13T00:05:19.225Z,9.44
2022-10-13T00:07:48.033Z,9.03
2022-10-13T00:10:16.895Z,9.45
2022-10-13T00:12:47.141Z,9.07
2022-10-13T00:15:17.128Z,8.99
2022-10-13T00:17:46.063Z,9.17
2022-10-13T00:20:14.976Z,9.24
2022-10-13T00:22:44.279Z,8.05
2022-10-13T00:25:13.099Z,9.37
2022-10-13T00:27:42.001Z,9.52
2022-10-13T00:30:12.932Z,9.16
2022-10-13T00:32:46.432Z,9.49
2022-10-13T00:35:15.651Z,8.12
2022-10-13T00:37:44.438Z,9.45
2022-10-13T00:40:13.714Z,8.95
2022-10-13T00:42:43.039Z,9.22
2022-10-13T00:45:31.292Z,9.26
2022-10-13T00:48:03.121Z,9.60
2022-10-13T00:50:39.199Z,9.34
2022-10-13T00:53:09.721Z,8.36
2022-10-13T00:55:41.220Z,9.55
2022-10-13T00:58:15.998Z,8.79
2022-10-13T01:00:48.518Z,8.87
2022-10-13T01:03:19.688Z,8.85
2022-10-13T01:05:49.784Z,9.05
2022-10-13T01:08:21.500Z,9.34
2022-10-13T01:11:03.749Z,9.40
2022-10-13T01:13:39.829Z,9.14
2022-10-13T01:16:20.853Z,9.51
2022-10-13T01:19:01.963Z,9.43
2022-10-13T01:21:38.724Z,9.51
2022-10-13T01:24:44.280Z,8.82
2022-10-13T01:27:47.696Z,9.32
2022-10-13T01:30:20.256Z,9.42
2022-10-13T01:33:03.991Z,9.42
2022-10-13T01:35:44.610Z,9.20
2022-10-13T01:38:24.619Z,9.34
2022-10-13T01:41:01.072Z,8.94
2022-10-13T01:43:36.734Z,9.32
2022-10-13T01:46:11.616Z,9.01
2022-10-13T01:48:45.379Z,9.51
2022-10-13T01:51:20.027Z,9.37
2022-10-13T01:53:50.517Z,9.37
2022-10-13T01:56:19.658Z,9.51
2022-10-13T01:58:51.268Z,9.40
2022-10-13T02:01:36.030Z,9.49
2022-10-13T02:04:15.848Z,9.39
2022-10-13T02:06:49.380Z,9.42
2022-10-13T02:09:27.021Z,9.47
2022-10-13T02:11:59.898Z,9.35
2022-10-13T02:14:34.852Z,9.37
2022-10-13T02:17:06.708Z,9.41
2022-10-13T02:19:39.215Z,9.53
2022-10-13T02:22:10.931Z,8.69
2022-10-13T02:24:39.931Z,8.69
2022-10-13T02:27:10.098Z,8.31
2022-10-13T02:29:50.357Z,9.10
2022-10-13T02:32:23.093Z,9.34
2022-10-13T02:34:53.807Z,9.34
2022-10-13T02:37:25.419Z,9.33
2022-10-13T02:39:57.359Z,9.08
2022-10-13T02:42:29.765Z,8.46
2022-10-13T02:45:01.513Z,9.17
2022-10-13T02:47:31.859Z,9.13
2022-10-13T02:50:01.251Z,9.16
2022-10-13T02:52:30.286Z,9.39
2022-10-13T02:54:59.143Z,8.93
2022-10-13T02:57:28.024Z,9.09
2022-10-13T02:59:59.413Z,9.10
2022-10-13T03:02:31.696Z,9.16
2022-10-13T03:05:00.775Z,9.21
2022-10-13T03:07:29.594Z,9.22
2022-10-13T03:09:58.668Z,8.83
2022-10-13T03:12:27.626Z,8.29
2022-10-13T03:14:56.602Z,9.19
2022-10-13T03:17:25.927Z,9.37
2022-10-13T03:20:12.138Z,9.17
2022-10-13T03:22:48.840Z,8.57
2022-10-13T03:25:18.901Z,8.17
2022-10-13T03:27:48.059Z,8.74
2022-10-13T03:30:17.356Z,9.58
2022-10-13T03:32:46.186Z,9.15
2022-10-13T03:35:16.349Z,9.57
2022-10-13T03:37:45.198Z,8.99
2022-10-13T03:40:14.588Z,9.28
2022-10-13T03:42:43.289Z,9.36
2022-10-13T03:45:12.881Z,9.06
2022-10-13T03:47:41.666Z,9.18
2022-10-13T03:50:11.531Z,9.24
2022-10-13T03:52:41.782Z,9.40
2022-10-13T03:55:10.917Z,9.37
2022-10-13T03:57:39.767Z,9.22
2022-10-13T04:00:10.847Z,9.33
2022-10-13T04:02:41.453Z,9.30
2022-10-13T04:05:11.046Z,9.23
2022-10-13T04:07:42.700Z,8.90
2022-10-13T04:10:20.564Z,8.29
2022-10-13T04:12:51.569Z,8.83
2022-10-13T04:15:20.950Z,8.72
2022-10-13T04:17:50.781Z,8.83
2022-10-13T04:20:20.506Z,9.44
2022-10-13T04:22:50.756Z,9.16
2022-10-13T04:25:19.899Z,9.16
2022-10-13T04:27:48.719Z,9.53
2022-10-13T04:30:19.605Z,9.36
2022-10-13T04:33:02.143Z,7.82
2022-10-13T04:35:31.545Z,9.10
2022-10-13T04:38:03.276Z,9.40
2022-10-13T04:40:41.204Z,8.49
2022-10-13T04:43:10.222Z,9.57
2022-10-13T04:45:39.122Z,9.70
2022-10-13T04:48:08.054Z,9.41
2022-10-13T04:50:36.849Z,9.40
2022-10-13T04:53:07.717Z,9.42
2022-10-13T04:55:37.730Z,9.58
2022-10-13T04:58:06.484Z,9.59
2022-10-13T05:00:35.300Z,9.24
2022-10-13T05:03:04.168Z,9.36
2022-10-13T05:05:36.841Z,9.31
2022-10-13T05:08:07.549Z,8.82
2022-10-13T05:10:36.587Z,9.69
2022-10-13T05:13:05.560Z,8.73
2022-10-13T05:15:34.257Z,9.47
2022-10-13T05:18:03.451Z,9.75
2022-10-13T05:20:32.742Z,9.70
2022-10-13T05:23:01.751Z,9.01
2022-10-13T05:25:34.046Z,9.56
2022-10-13T05:28:03.200Z,9.55
2022-10-13T05:30:32.359Z,9.78
2022-10-13T05:33:05.955Z,9.72
2022-10-13T05:35:35.040Z,10.03
2022-10-13T05:38:03.788Z,9.33
2022-10-13T05:40:33.990Z,10.20
2022-10-13T05:43:05.933Z,10.15
2022-10-13T05:45:34.806Z,9.07
2022-10-13T05:48:04.154Z,10.13
2022-10-13T05:50:32.945Z,9.09
2022-10-13T05:53:01.695Z,10.34
2022-10-13T05:55:30.430Z,10.29
2022-10-13T05:58:02.526Z,10.30
2022-10-13T06:00:31.605Z,10.54
2022-10-13T06:03:08.461Z,10.55
2022-10-13T06:05:40.830Z,10.30
2022-10-13T06:08:10.652Z,10.31
2022-10-13T06:10:42.807Z,10.67
2022-10-13T06:13:13.067Z,9.90
2022-10-13T06:15:42.047Z,10.95
2022-10-13T06:18:11.325Z,9.89
2022-10-13T06:20:42.926Z,10.77
2022-10-13T06:23:19.145Z,10.56
2022-10-13T06:25:49.227Z,9.35
2022-10-13T06:28:20.387Z,10.24
2022-10-13T06:30:54.441Z,11.18
2022-10-13T06:33:59.811Z,10.50
2022-10-13T06:36:48.324Z,10.07
2022-10-13T06:39:17.969Z,10.45
2022-10-13T06:41:52.802Z,11.01
2022-10-13T06:44:23.916Z,11.37
2022-10-13T06:46:53.291Z,10.63
2022-10-13T06:49:24.445Z,11.40
2022-10-13T06:51:55.103Z,10.40
2022-10-13T06:54:25.535Z,11.02
2022-10-13T06:57:07.659Z,10.64
2022-10-13T06:59:39.295Z,11.20
2022-10-13T07:02:11.683Z,11.98
2022-10-13T07:04:48.296Z,11.91
2022-10-13T07:07:21.898Z,10.34
2022-10-13T07:09:54.102Z,11.19
2022-10-13T07:12:25.790Z,11.33
2022-10-13T07:14:56.718Z,11.86
2022-10-13T07:17:25.865Z,11.70
2022-10-13T07:19:57.942Z,11.95
2022-10-13T07:22:33.101Z,12.12
2022-10-13T07:25:02.475Z,11.68
2022-10-13T07:27:38.650Z,11.75
2022-10-13T07:30:15.241Z,12.83
2022-10-13T07:32:44.315Z,12.93
2022-10-13T07:35:14.445Z,12.57
2022-10-13T07:37:54.851Z,11.15
2022-10-13T07:40:37.397Z,12.50
2022-10-13T07:43:10.837Z,12.41
2022-10-13T07:46:04.168Z,12.17
2022-10-13T07:48:34.485Z,12.33
2022-10-13T07:51:09.437Z,12.70
2022-10-13T07:53:43.933Z,12.92
2022-10-13T07:56:15.620Z,12.44
2022-10-13T07:58:50.145Z,13.05
2022-10-13T08:01:20.599Z,12.10
2022-10-13T08:04:14.015Z,13.45
2022-10-13T08:06:44.758Z,13.65
2022-10-13T08:09:14.490Z,13.29
2022-10-13T08:11:45.588Z,12.87
2022-10-13T08:14:42.363Z,12.08
2022-10-13T08:17:23.437Z,11.76
2022-10-13T08:19:59.574Z,12.27
2022-10-13T08:23:02.045Z,12.48
2022-10-13T08:25:27.341Z,13.06
2022-10-13T08:28:00.596Z,13.64
2022-10-13T08:30:29.754Z,14.44
2022-10-13T08:33:01.871Z,14.36
2022-10-13T08:35:45.362Z,14.29
2022-10-13T08:38:18.137Z,13.88
2022-10-13T08:40:51.531Z,14.66
2022-10-13T08:43:24.037Z,14.62
2022-10-13T08:45:59.123Z,14.64
2022-10-13T08:48:38.283Z,13.35
2022-10-13T08:51:08.992Z,13.82
2022-10-13T08:53:41.282Z,13.87
2022-10-13T08:56:16.194Z,14.46
2022-10-13T08:58:51.496Z,14.55
2022-10-13T09:01:23.817Z,14.66
2022-10-13T09:03:56.419Z,14.27
2022-10-13T09:06:29.032Z,14.34
2022-10-13T09:09:00.847Z,14.20
2022-10-13T09:11:34.278Z,14.58
2022-10-13T09:14:04.604Z,14.98
2022-10-13T09:16:38.875Z,14.28
2022-10-13T09:19:25.768Z,13.63
2022-10-13T09:21:57.302Z,13.57
2022-10-13T09:24:28.532Z,14.74
2022-10-13T09:27:13.852Z,14.65
2022-10-13T09:29:45.868Z,13.66
2022-10-13T09:32:19.559Z,12.78
2022-10-13T09:34:56.132Z,13.78
2022-10-13T09:37:28.426Z,13.32
2022-10-13T09:40:15.657Z,12.98
2022-10-13T09:42:54.334Z,15.45
2022-10-13T09:45:30.572Z,13.95
2022-10-13T09:48:07.353Z,14.20
2022-10-13T09:50:38.335Z,13.85
2022-10-13T09:53:18.857Z,12.71
2022-10-13T09:55:49.806Z,13.41
2022-10-13T09:58:29.379Z,14.82
2022-10-13T10:01:02.979Z,14.73
2022-10-13T10:03:35.732Z,15.05
2022-10-13T10:06:24.110Z,14.13
2022-10-13T10:09:06.676Z,14.86
2022-10-13T10:11:43.155Z,13.55
2022-10-13T10:14:21.938Z,13.85
2022-10-13T10:16:57.748Z,13.31
2022-10-13T10:19:34.713Z,13.20
2022-10-13T10:22:20.128Z,13.64
2022-10-13T10:24:59.421Z,14.40
2022-10-13T10:27:34.557Z,13.78
2022-10-13T10:30:11.847Z,13.64
2022-10-13T10:32:54.233Z,13.41
2022-10-13T10:35:46.687Z,13.61
2022-10-13T10:39:13.854Z,13.63
2022-10-13T10:42:52.193Z,14.60
2022-10-13T10:45:29.589Z,14.33
2022-10-13T10:49:02.036Z,14.55
2022-10-13T10:51:53.261Z,12.77
2022-10-13T10:54:49.331Z,14.49
2022-10-13T10:57:33.046Z,14.39
2022-10-13T11:00:12.811Z,13.46
2022-10-13T11:04:59.061Z,14.83
2022-10-13T11:06:41.253Z,14.05
2022-10-13T11:09:16.132Z,14.35
2022-10-13T11:11:50.576Z,15.26
2022-10-13T11:19:10.366Z,14.81
2022-10-13T11:22:19.342Z,14.04
2022-10-13T11:24:57.811Z,15.08
2022-10-13T11:27:40.724Z,13.80
2022-10-13T11:30:45.105Z,15.54
2022-10-13T11:33:52.839Z,15.72
2022-10-13T11:36:55.606Z,15.36
2022-10-13T11:40:06.770Z,14.20
2022-10-13T11:43:14.057Z,15.89
2022-10-13T11:45:54.282Z,15.80
2022-10-13T11:48:59.669Z,14.20
2022-10-13T11:51:37.303Z,14.21
2022-10-13T11:54:19.011Z,13.98
2022-10-13T11:57:08.113Z,14.13
2022-10-13T11:59:38.733Z,15.06
2022-10-13T12:02:18.711Z,14.46
2022-10-13T12:05:05.595Z,15.27
2022-10-13T12:07:49.524Z,15.66
2022-10-13T12:10:31.118Z,15.96
2022-10-13T12:13:03.582Z,16.03
2022-10-13T12:15:41.808Z,16.54
2022-10-13T12:18:27.746Z,16.67
2022-10-13T12:21:14.352Z,17.03
2022-10-13T12:23:50.507Z,17.81
2022-10-13T12:26:31.044Z,17.45
2022-10-13T12:29:05.299Z,17.25
2022-10-13T12:31:42.367Z,20.57
2022-10-13T12:34:22.007Z,19.34
2022-10-13T12:37:15.733Z,18.72
2022-10-13T12:40:03.023Z,19.27
2022-10-13T12:42:47.251Z,19.77
2022-10-13T12:45:36.544Z,17.32
2022-10-13T12:48:40.538Z,18.76
2022-10-13T12:51:23.460Z,17.86
2022-10-13T12:54:34.277Z,16.62
2022-10-13T12:57:24.937Z,16.34
2022-10-13T13:00:32.795Z,17.87
2022-10-13T13:03:08.012Z,17.13
2022-10-13T13:05:51.693Z,17.38
2022-10-13T13:09:28.847Z,16.82
2022-10-13T13:12:30.283Z,19.55
2022-10-13T13:15:37.580Z,16.47
2022-10-13T13:18:54.196Z,16.63
2022-10-13T13:24:39.461Z,16.35
2022-10-13T13:27:21.827Z,15.83
2022-10-13T13:30:19.765Z,15.38
2022-10-13T13:33:08.861Z,15.77
2022-10-13T13:35:50.731Z,15.17
2022-10-13T13:38:24.643Z,15.03
2022-10-13T13:41:03.097Z,15.55
2022-10-13T13:43:42.845Z,15.94
2022-10-13T13:46:18.723Z,14.76
2022-10-13T13:49:20.609Z,15.66
2022-10-13T13:51:55.621Z,14.15
2022-10-13T13:54:36.092Z,14.30
2022-10-13T13:57:17.215Z,14.45
2022-10-13T13:59:53.429Z,14.46
2022-10-13T14:02:33.084Z,14.89
2022-10-13T14:05:14.333Z,13.66
2022-10-13T14:07:51.450Z,14.71
2022-10-13T14:10:36.824Z,13.61
2022-10-13T14:13:29.987Z,13.29
2022-10-13T14:16:20.548Z,14.04
2022-10-13T14:18:52.974Z,14.50
2022-10-13T14:21:29.006Z,14.08
2022-10-13T14:24:08.524Z,12.82
2022-10-13T14:27:01.282Z,14.13
2022-10-13T14:30:08.102Z,14.06
2022-10-13T14:32:44.796Z,13.16
2022-10-13T14:35:17.101Z,13.12
2022-10-13T14:37:57.095Z,12.67
2022-10-13T14:40:33.736Z,12.64
2022-10-13T14:43:28.818Z,13.45
2022-10-13T14:46:18.585Z,12.98
2022-10-13T14:48:54.715Z,12.66
2022-10-13T14:51:39.954Z,11.72
2022-10-13T14:54:55.949Z,12.96
2022-10-13T14:57:28.831Z,11.24
2022-10-13T15:00:01.869Z,12.45
2022-10-13T15:02:37.609Z,10.81
2022-10-13T15:05:20.123Z,12.42
2022-10-13T15:08:11.000Z,11.53
2022-10-13T15:10:59.331Z,10.72
2022-10-13T15:13:41.578Z,12.01
2022-10-13T15:16:42.404Z,11.34
2022-10-13T15:19:21.010Z,10.58
2022-10-13T15:22:18.998Z,10.20
2022-10-13T15:24:54.138Z,10.87
2022-10-13T15:27:47.861Z,11.52
2022-10-13T15:30:21.267Z,11.33
2022-10-13T15:32:53.860Z,10.79
2022-10-13T15:35:45.254Z,10.67
2022-10-13T15:38:20.068Z,11.64
2022-10-13T15:41:03.917Z,10.45
2022-10-13T15:43:41.289Z,10.08
2022-10-13T15:46:28.849Z,11.00
2022-10-13T15:49:06.750Z,10.29
2022-10-13T15:51:35.821Z,11.29
2022-10-13T15:54:08.515Z,10.29
2022-10-13T15:56:38.959Z,11.71
2022-10-13T15:59:09.895Z,11.02
2022-10-13T16:01:38.979Z,10.16
2022-10-13T16:04:08.333Z,10.57
2022-10-13T16:06:46.579Z,11.60
2022-10-13T16:09:18.384Z,11.31
2022-10-13T16:11:49.200Z,10.18
2022-10-13T16:14:20.521Z,10.62
2022-10-13T16:16:51.831Z,10.98
2022-10-13T16:19:35.101Z,11.76
2022-10-13T16:22:16.796Z,11.22
2022-10-13T16:24:51.721Z,11.83
2022-10-13T16:30:34.564Z,11.77
2022-10-13T16:33:28.853Z,11.35
2022-10-13T16:36:20.195Z,11.88
2022-10-13T16:38:56.262Z,10.72
2022-10-13T16:41:28.188Z,10.43
2022-10-13T16:44:06.471Z,11.10
2022-10-13T16:46:39.198Z,11.37
2022-10-13T16:49:08.395Z,11.28
2022-10-13T16:51:38.438Z,11.97
2022-10-13T16:54:14.832Z,10.46
2022-10-13T16:57:01.229Z,11.40
2022-10-13T16:59:39.582Z,11.27
2022-10-13T17:06:30.229Z,10.53
2022-10-13T17:09:03.125Z,11.77
2022-10-13T17:11:34.364Z,10.97
2022-10-13T17:14:08.142Z,11.88
2022-10-13T17:17:05.107Z,10.21
2022-10-13T17:19:37.022Z,10.67
2022-10-13T17:22:13.157Z,12.00
2022-10-13T17:24:48.560Z,10.34
2022-10-13T17:27:47.681Z,10.43
2022-10-13T17:31:09.609Z,11.28
2022-10-13T17:33:48.912Z,12.03
2022-10-13T17:36:26.554Z,11.74
2022-10-13T17:39:05.363Z,11.29
2022-10-13T17:41:37.162Z,11.07
2022-10-13T17:44:14.719Z,10.50
2022-10-13T17:46:50.818Z,11.02
2022-10-13T17:49:29.407Z,11.42
2022-10-13T17:51:58.593Z,11.96
2022-10-13T17:54:34.204Z,10.40
2022-10-13T17:57:09.431Z,10.71
2022-10-13T17:59:46.259Z,10.58
2022-10-13T18:02:19.180Z,11.32
2022-10-13T18:04:58.174Z,11.44
2022-10-13T18:07:32.768Z,12.04
2022-10-13T18:10:15.948Z,11.63
2022-10-13T18:12:45.784Z,10.45
2022-10-13T18:15:17.873Z,10.98
2022-10-13T18:17:55.326Z,10.65
2022-10-13T18:20:29.636Z,11.66
2022-10-13T18:23:01.369Z,10.80
2022-10-13T18:25:40.574Z,12.17
2022-10-13T18:28:09.913Z,11.13
2022-10-13T18:30:40.576Z,11.17
2022-10-13T18:33:09.823Z,10.68
2022-10-13T18:35:42.240Z,11.35
2022-10-13T18:38:11.960Z,11.40
2022-10-13T18:40:45.543Z,11.10
2022-10-13T18:43:19.630Z,11.30
2022-10-13T18:45:57.160Z,11.95
2022-10-13T18:48:26.676Z,11.68
2022-10-13T18:51:03.753Z,10.42
2022-10-13T18:53:40.604Z,10.46
2022-10-13T18:56:17.101Z,10.39
2022-10-13T18:58:46.793Z,10.60
2022-10-13T19:06:28.729Z,10.10
2022-10-13T19:09:07.246Z,10.29
2022-10-13T19:11:49.895Z,10.17
2022-10-13T19:18:02.533Z,11.04
2022-10-13T19:20:35.985Z,11.44
2022-10-13T19:23:29.808Z,11.18
2022-10-13T19:26:14.654Z,10.36
2022-10-13T19:29:52.248Z,10.95
2022-10-13T19:32:53.748Z,10.86
2022-10-13T19:35:29.248Z,10.39
2022-10-13T19:38:01.318Z,10.30
2022-10-13T19:40:32.935Z,10.35
2022-10-13T19:43:15.072Z,10.19
2022-10-13T19:45:50.152Z,11.86
2022-10-13T19:48:29.951Z,11.29
2022-10-13T19:51:06.734Z,10.56
2022-10-13T19:53:37.466Z,10.58
2022-10-13T19:56:09.934Z,10.29
2022-10-13T19:58:39.666Z,10.14
2022-10-13T20:01:11.492Z,10.91
2022-10-13T20:03:44.411Z,10.78
2022-10-13T20:06:23.417Z,10.60
2022-10-13T20:08:52.462Z,11.91
2022-10-13T20:11:27.464Z,11.50
2022-10-13T20:14:02.512Z,11.39
2022-10-13T20:16:45.881Z,11.93
2022-10-13T20:19:35.044Z,10.36
2022-10-13T20:22:04.981Z,11.06
2022-10-13T20:24:47.594Z,11.23
2022-10-13T20:27:30.758Z,11.29
2022-10-13T20:30:07.407Z,11.25
2022-10-13T20:33:14.417Z,10.48
2022-10-13T20:36:06.050Z,11.39
2022-10-13T20:38:43.163Z,10.60
2022-10-13T20:41:22.404Z,11.78
2022-10-13T20:44:16.311Z,11.73
2022-10-13T20:46:58.300Z,10.99
2022-10-13T20:49:36.185Z,10.20
2022-10-13T20:52:09.713Z,11.45
2022-10-13T20:54:40.088Z,11.91
2022-10-13T20:57:09.787Z,10.32
2022-10-13T20:59:39.142Z,11.91
2022-10-13T21:02:12.824Z,10.29
2022-10-13T21:04:42.101Z,11.88
2022-10-13T21:07:16.964Z,11.94
2022-10-13T21:09:53.997Z,10.23
2022-10-13T21:12:25.262Z,11.43
2022-10-13T21:14:58.001Z,11.69
2022-10-13T21:17:32.169Z,10.37
2022-10-13T21:20:05.792Z,10.91
2022-10-13T21:22:37.510Z,10.22
2022-10-13T21:25:11.992Z,11.10
2022-10-13T21:27:45.771Z,11.12
2022-10-13T21:30:15.966Z,11.37
2022-10-13T21:32:45.395Z,10.87
2022-10-13T21:35:16.111Z,11.01
2022-10-13T21:37:47.361Z,11.50
2022-10-13T21:40:18.234Z,11.26
2022-10-13T21:42:47.476Z,11.74
2022-10-13T21:45:16.728Z,11.12
2022-10-13T21:47:45.686Z,11.09
2022-10-13T21:50:14.679Z,11.11
2022-10-13T21:52:49.133Z,11.39
2022-10-13T21:55:19.558Z,10.17
2022-10-13T21:57:51.096Z,10.19
2022-10-13T22:00:20.903Z,10.16
2022-10-13T22:02:55.655Z,11.45
2022-10-13T22:05:26.683Z,11.22
2022-10-13T22:08:08.481Z,10.17
2022-10-13T22:10:44.612Z,11.06
2022-10-13T22:13:15.795Z,11.27
2022-10-13T22:15:57.142Z,11.76
2022-10-13T22:18:32.812Z,10.25
2022-10-13T22:21:14.584Z,11.34
2022-10-13T22:23:48.742Z,10.31
2022-10-13T22:26:21.391Z,10.71
2022-10-13T22:29:05.199Z,11.57
2022-10-13T22:31:37.706Z,9.94
2022-10-13T22:34:13.365Z,10.64
2022-10-13T22:36:45.636Z,10.62
2022-10-13T22:39:17.962Z,11.37
2022-10-13T22:41:48.341Z,10.23
2022-10-13T22:44:17.556Z,9.87
2022-10-13T22:46:46.436Z,9.93
2022-10-13T22:49:15.993Z,9.96
2022-10-13T22:51:45.496Z,10.18
2022-10-13T22:54:14.650Z,10.03
2022-10-13T22:56:44.998Z,11.02
2022-10-13T22:59:16.408Z,11.27
2022-10-13T23:01:45.419Z,11.40
2022-10-13T23:04:16.335Z,11.43
2022-10-13T23:06:47.751Z,10.63
2022-10-13T23:09:18.102Z,10.23
2022-10-13T23:11:48.602Z,9.72
2022-10-13T23:14:20.802Z,11.17
2022-10-13T23:16:49.931Z,10.05
2022-10-13T23:19:20.560Z,11.43
2022-10-13T23:21:50.022Z,10.66
2022-10-13T23:24:22.163Z,10.24
2022-10-13T23:27:00.517Z,9.88
2022-10-13T23:29:29.423Z,11.49
2022-10-13T23:31:58.460Z,9.94
2022-10-13T23:34:29.196Z,9.95
2022-10-13T23:36:58.570Z,9.93
2022-10-13T23:39:29.608Z,10.06
2022-10-13T23:41:59.957Z,10.54
2022-10-13T23:44:31.326Z,10.68
2022-10-13T23:47:00.441Z,11.57
2022-10-13T23:49:29.810Z,10.52
2022-10-13T23:51:59.062Z,10.75
2022-10-13T23:54:28.487Z,10.91
2022-10-13T23:56:57.890Z,10.40
2022-10-13T23:59:28.334Z,10.57
